Time;durP1;ratioP1;P1;durP2;ratioP2;P2;SDS_P1;SDS_P2;PMS_P1;PMS_P2;Temp;Humidity;BMP_temperature;BMP_pressure;BME280_temperature;BME280_humidity;BME280_pressure;Samples;Min_cycle;Max_cycle;Signal;HPM_P1;HPM_P2
2021/06/18 00:00:37;;;;;;;7.40;4.67;;;23.20;99.90;;;;;;5015008;28;20421;-77
2021/06/18 00:03:03;;;;;;;7.47;5.20;;;23.10;99.90;;;;;;5014816;28;21357;-78
2021/06/18 00:05:28;;;;;;;6.03;4.47;;;23.10;99.90;;;;;;5014843;28;20199;-77
2021/06/18 00:07:54;;;;;;;5.80;4.90;;;23.20;99.90;;;;;;5014879;28;20218;-79
2021/06/18 00:10:23;;;;;;;6.33;5.43;;;23.20;99.90;;;;;;5014823;28;20214;-79
2021/06/18 00:12:48;;;;;;;11.03;6.00;;;23.30;99.90;;;;;;5014649;28;20456;-77
2021/06/18 00:15:15;;;;;;;5.17;4.67;;;23.20;99.90;;;;;;5014757;28;20466;-79
2021/06/18 00:17:41;;;;;;;10.17;5.30;;;23.20;99.90;;;;;;5014866;28;20171;-79
2021/06/18 00:20:09;;;;;;;11.40;6.10;;;23.20;99.90;;;;;;5014870;28;20424;-80
2021/06/18 00:22:35;;;;;;;10.43;7.07;;;23.30;99.90;;;;;;5014525;28;20187;-77
2021/06/18 00:25:01;;;;;;;11.60;5.83;;;23.20;99.90;;;;;;5014242;28;20449;-79
2021/06/18 00:27:27;;;;;;;9.60;6.30;;;23.40;99.90;;;;;;5014734;28;20414;-79
2021/06/18 00:29:53;;;;;;;7.33;5.87;;;23.30;99.90;;;;;;5014475;28;20678;-80
2021/06/18 00:32:18;;;;;;;6.93;5.93;;;23.40;99.90;;;;;;5014428;28;20639;-78
2021/06/18 00:34:44;;;;;;;9.13;5.80;;;23.40;99.90;;;;;;5013991;28;20507;-80
2021/06/18 00:37:10;;;;;;;10.03;6.80;;;23.40;99.90;;;;;;5014236;28;20182;-79
2021/06/18 00:39:36;;;;;;;13.83;6.83;;;23.40;99.90;;;;;;5014352;28;20770;-77
2021/06/18 00:42:02;;;;;;;8.40;6.40;;;23.50;99.90;;;;;;5014273;28;20183;-80
2021/06/18 00:44:28;;;;;;;6.10;5.50;;;23.50;99.90;;;;;;5013796;28;20437;-79
2021/06/18 00:46:54;;;;;;;11.53;6.27;;;23.50;99.90;;;;;;5014129;28;20418;-79
2021/06/18 00:49:21;;;;;;;12.63;6.40;;;23.60;99.90;;;;;;5013845;28;20225;-80
2021/06/18 00:51:47;;;;;;;8.83;5.60;;;23.50;99.90;;;;;;5014124;28;20890;-77
2021/06/18 00:54:13;;;;;;;14.10;6.80;;;23.50;99.90;;;;;;5013795;28;20437;-79
2021/06/18 00:56:40;;;;;;;12.70;6.63;;;23.60;99.90;;;;;;5014040;28;20182;-78
2021/06/18 00:59:06;;;;;;;11.07;6.37;;;23.60;99.90;;;;;;5013962;28;20441;-77
2021/06/18 01:01:32;;;;;;;8.20;6.63;;;23.60;99.90;;;;;;5013933;28;20413;-76
2021/06/18 01:03:58;;;;;;;6.80;6.00;;;23.50;99.90;;;;;;5013553;28;20597;-79
2021/06/18 01:06:30;;;;;;;9.27;6.73;;;23.50;99.90;;;;;;4996518;28;20506;-78
2021/06/18 01:09:01;;;;;;;7.40;6.60;;;23.50;99.90;;;;;;5014197;28;20989;-76
2021/06/18 01:11:31;;;;;;;8.30;6.77;;;23.40;99.90;;;;;;5014033;28;20465;-79
2021/06/18 01:14:17;;;;;;;10.00;6.50;;;23.50;99.90;;;;;;5013598;28;20434;-77
2021/06/18 01:16:55;;;;;;;10.27;6.27;;;23.40;99.90;;;;;;5012656;28;20410;-78
2021/06/18 01:19:27;;;;;;;8.90;6.60;;;23.30;99.90;;;;;;5013704;28;20397;-75
2021/06/18 01:21:54;;;;;;;14.77;6.57;;;23.30;99.90;;;;;;5014067;28;20493;-79
2021/06/18 01:25:02;;;;;;;8.00;7.13;;;23.30;99.90;;;;;;5013226;28;20881;-79
2021/06/18 01:27:30;;;;;;;9.40;7.47;;;23.40;99.90;;;;;;5008792;28;20426;-77
2021/06/18 01:30:05;;;;;;;7.03;6.33;;;23.50;99.90;;;;;;5013551;28;20954;-78
2021/06/18 01:32:54;;;;;;;9.50;6.73;;;23.50;99.90;;;;;;5013697;28;20437;-75
2021/06/18 01:35:21;;;;;;;12.53;6.63;;;23.50;99.90;;;;;;5009905;28;20465;-79
2021/06/18 01:37:51;;;;;;;17.10;6.87;;;23.50;99.90;;;;;;5013373;28;20504;-76
2021/06/18 01:40:19;;;;;;;10.40;6.37;;;23.30;99.90;;;;;;5013500;28;20890;-78
2021/06/18 01:42:47;;;;;;;17.70;6.90;;;23.20;99.90;;;;;;5013276;28;20781;-77
2021/06/18 01:45:15;;;;;;;12.73;7.13;;;23.10;99.90;;;;;;5013420;28;20437;-79
2021/06/18 01:47:43;;;;;;;22.63;7.33;;;22.90;99.90;;;;;;5013129;28;20430;-79
2021/06/18 01:50:13;;;;;;;11.20;6.40;;;22.90;99.90;;;;;;5013508;28;20936;-78
2021/06/18 01:52:42;;;;;;;10.57;7.13;;;23.00;99.90;;;;;;5013469;28;20513;-76
2021/06/18 01:55:09;;;;;;;9.60;6.80;;;23.00;99.90;;;;;;5013043;28;20839;-80
2021/06/18 01:57:37;;;;;;;9.60;7.50;;;22.90;99.90;;;;;;5013632;28;20509;-80
2021/06/18 02:00:05;;;;;;;10.90;6.20;;;23.00;99.90;;;;;;5013448;28;20782;-79
2021/06/18 02:02:32;;;;;;;13.07;6.70;;;22.90;99.90;;;;;;5013256;28;20456;-77
2021/06/18 02:04:59;;;;;;;11.27;6.73;;;23.00;99.90;;;;;;5013088;28;20522;-77
2021/06/18 02:07:26;;;;;;;7.00;6.40;;;22.80;99.90;;;;;;5012145;28;20448;-78
2021/06/18 02:09:53;;;;;;;8.90;6.30;;;22.70;99.90;;;;;;5013245;28;20453;-77
2021/06/18 02:12:20;;;;;;;6.80;6.10;;;22.60;99.90;;;;;;5012025;28;20429;-77
2021/06/18 02:14:48;;;;;;;12.67;6.17;;;22.60;99.90;;;;;;5013086;28;20499;-79
2021/06/18 02:17:15;;;;;;;8.03;7.10;;;22.20;99.90;;;;;;5017041;28;20459;-79
2021/06/18 02:19:42;;;;;;;10.47;6.20;;;22.10;99.90;;;;;;5016980;28;21006;-79
2021/06/18 02:22:10;;;;;;;7.57;6.60;;;22.20;99.90;;;;;;5016792;28;20421;-79
2021/06/18 02:24:37;;;;;;;7.97;6.83;;;22.30;99.90;;;;;;5015287;28;20535;-77
2021/06/18 02:27:04;;;;;;;8.60;7.30;;;22.40;99.90;;;;;;5016955;28;20454;-78
2021/06/18 02:29:30;;;;;;;8.27;7.10;;;22.20;99.90;;;;;;5016637;28;20460;-76
2021/06/18 02:31:58;;;;;;;9.10;7.03;;;22.20;99.90;;;;;;5016547;28;20422;-78
2021/06/18 02:34:24;;;;;;;9.70;6.50;;;21.80;99.90;;;;;;5016191;28;20449;-79
2021/06/18 02:36:49;;;;;;;10.57;7.00;;;21.90;99.90;;;;;;5015763;28;20936;-75
2021/06/18 02:39:15;;;;;;;9.10;6.77;;;22.00;99.90;;;;;;5016562;28;20253;-76
2021/06/18 02:41:41;;;;;;;10.33;6.57;;;22.00;99.90;;;;;;5016850;28;20186;-79
2021/06/18 02:44:07;;;;;;;10.77;6.77;;;22.00;99.90;;;;;;5016755;28;20238;-77
2021/06/18 02:46:39;;;;;;;12.63;8.23;;;22.00;99.90;;;;;;5021168;28;20410;-79
2021/06/18 02:49:11;;;;;;;9.40;7.10;;;21.80;99.90;;;;;;5016370;28;20402;-78
2021/06/18 02:51:47;;;;;;;8.63;7.77;;;21.70;99.90;;;;;;5016464;28;20516;-78
2021/06/18 02:54:31;;;;;;;8.27;7.00;;;21.60;99.90;;;;;;5015790;28;20437;-77
2021/06/18 02:57:06;;;;;;;9.60;6.97;;;21.60;99.90;;;;;;5016526;28;20417;-78
2021/06/18 02:59:44;;;;;;;10.57;7.03;;;21.70;99.90;;;;;;5022122;28;20413;-77
2021/06/18 03:02:14;;;;;;;8.77;7.90;;;21.50;99.90;;;;;;5016201;28;20425;-77
2021/06/18 03:04:43;;;;;;;17.40;7.77;;;21.60;99.90;;;;;;5014628;28;20954;-78
2021/06/18 03:07:16;;;;;;;16.80;6.43;;;21.50;99.90;;;;;;5016439;28;20410;-79
2021/06/18 03:09:53;;;;;;;9.40;7.57;;;21.50;99.90;;;;;;5014968;28;20526;-78
2021/06/18 03:12:24;;;;;;;10.83;7.87;;;21.50;99.90;;;;;;5015888;28;20974;-80
2021/06/18 03:14:52;;;;;;;8.53;7.73;;;21.50;99.90;;;;;;5015734;28;20488;-78
2021/06/18 03:17:20;;;;;;;11.13;7.53;;;21.40;99.90;;;;;;5015902;28;20414;-80
2021/06/18 03:19:50;;;;;;;9.53;8.27;;;21.40;99.90;;;;;;5016008;28;20489;-80
2021/06/18 03:22:17;;;;;;;9.20;8.27;;;21.30;99.90;;;;;;5014548;28;20476;-79
2021/06/18 03:24:47;;;;;;;8.70;7.80;;;21.20;99.90;;;;;;5015238;28;20438;-80
2021/06/18 03:27:14;;;;;;;10.77;8.23;;;21.20;99.90;;;;;;5015496;28;20412;-78
2021/06/18 03:29:40;;;;;;;16.27;9.00;;;21.20;99.90;;;;;;5015481;28;20453;-76
2021/06/18 03:32:09;;;;;;;10.23;8.23;;;21.30;99.90;;;;;;5015492;28;20947;-79
2021/06/18 03:34:35;;;;;;;10.23;6.93;;;21.30;99.90;;;;;;5014942;28;20522;-76
2021/06/18 03:37:02;;;;;;;8.23;7.43;;;21.30;99.90;;;;;;5015691;28;20457;-79
2021/06/18 03:39:28;;;;;;;10.27;7.60;;;21.30;99.90;;;;;;5015497;28;20418;-78
2021/06/18 03:41:56;;;;;;;10.77;7.53;;;21.40;99.90;;;;;;5015388;28;20429;-79
2021/06/18 03:44:22;;;;;;;12.23;7.73;;;21.30;99.90;;;;;;5014807;28;20429;-77
2021/06/18 03:46:50;;;;;;;14.30;8.40;;;21.30;99.90;;;;;;5014280;28;20460;-78
2021/06/18 03:49:16;;;;;;;9.07;7.17;;;21.20;99.90;;;;;;5015196;28;20420;-78
2021/06/18 03:51:42;;;;;;;11.67;7.60;;;21.20;99.90;;;;;;5014043;28;20502;-76
2021/06/18 03:54:08;;;;;;;10.43;7.73;;;21.10;99.90;;;;;;5014804;28;20438;-79
2021/06/18 03:56:36;;;;;;;11.20;8.40;;;21.10;99.90;;;;;;5014999;28;20202;-77
2021/06/18 03:59:02;;;;;;;9.33;8.40;;;21.10;99.90;;;;;;5015152;28;20409;-78
2021/06/18 04:01:29;;;;;;;8.33;6.50;;;21.10;99.90;;;;;;5014067;28;20417;-79
2021/06/18 04:03:57;;;;;;;11.63;8.43;;;21.20;99.90;;;;;;5014875;28;20469;-79
2021/06/18 04:06:24;;;;;;;12.03;7.70;;;21.20;99.90;;;;;;5015160;28;20405;-78
2021/06/18 04:08:50;;;;;;;9.10;8.20;;;21.20;99.90;;;;;;5015010;28;20450;-76
2021/06/18 04:11:16;;;;;;;11.90;8.23;;;21.30;99.90;;;;;;5015014;28;20907;-79
2021/06/18 04:13:42;;;;;;;12.20;7.73;;;21.30;99.90;;;;;;5014483;28;20453;-75
2021/06/18 04:16:10;;;;;;;11.60;7.43;;;21.20;99.90;;;;;;5014868;28;20225;-77
2021/06/18 04:18:39;;;;;;;8.53;7.73;;;21.30;99.90;;;;;;5014673;28;20500;-79
2021/06/18 04:21:09;;;;;;;8.70;6.43;;;21.40;99.90;;;;;;5014673;28;20444;-77
2021/06/18 04:23:34;;;;;;;8.90;7.20;;;21.50;99.90;;;;;;5014624;28;20766;-78
2021/06/18 04:26:00;;;;;;;14.03;8.60;;;21.60;99.90;;;;;;5014579;28;20452;-77
2021/06/18 04:28:28;;;;;;;11.93;7.83;;;21.60;99.90;;;;;;5014440;28;20186;-78
2021/06/18 04:30:54;;;;;;;9.70;8.80;;;21.70;99.90;;;;;;5014229;28;21120;-76
2021/06/18 04:33:19;;;;;;;12.13;8.73;;;21.80;99.90;;;;;;5014249;28;20453;-77
2021/06/18 04:35:45;;;;;;;9.90;8.90;;;21.80;99.90;;;;;;5014075;28;20430;-79
2021/06/18 04:38:11;;;;;;;9.43;8.13;;;21.80;99.90;;;;;;5013680;28;20272;-77
2021/06/18 04:40:37;;;;;;;9.03;7.93;;;21.80;99.90;;;;;;5014534;28;20413;-80
2021/06/18 04:43:03;;;;;;;10.17;8.43;;;22.00;99.90;;;;;;5013879;28;20466;-76
2021/06/18 04:45:29;;;;;;;11.03;7.90;;;22.00;99.90;;;;;;5014108;28;20202;-79
2021/06/18 04:47:57;;;;;;;8.23;7.40;;;22.00;99.90;;;;;;5014019;28;20441;-76
2021/06/18 04:50:22;;;;;;;9.37;8.37;;;22.20;99.90;;;;;;5015802;28;20458;-78
2021/06/18 04:52:48;;;;;;;9.20;8.30;;;22.30;99.90;;;;;;5014223;28;20421;-78
2021/06/18 04:55:16;;;;;;;9.70;8.80;;;22.30;99.90;;;;;;5012918;28;20199;-77
2021/06/18 04:57:46;;;;;;;9.93;8.10;;;22.40;99.90;;;;;;5013255;28;20639;-77
2021/06/18 05:00:14;;;;;;;10.30;9.00;;;22.40;99.90;;;;;;5014269;28;20505;-76
2021/06/18 05:02:40;;;;;;;15.73;8.80;;;22.50;99.90;;;;;;5013990;28;20417;-76
2021/06/18 05:05:06;;;;;;;9.67;8.80;;;22.60;99.90;;;;;;5014107;28;20942;-78
2021/06/18 05:07:32;;;;;;;18.33;11.10;;;22.60;99.90;;;;;;5013913;28;20187;-79
2021/06/18 05:09:57;;;;;;;11.50;9.33;;;22.70;99.90;;;;;;5013833;28;20458;-78
2021/06/18 05:12:23;;;;;;;11.27;10.03;;;22.70;99.90;;;;;;5013960;28;20261;-78
2021/06/18 05:14:49;;;;;;;11.03;10.00;;;22.80;99.90;;;;;;5013655;28;20211;-78
2021/06/18 05:17:15;;;;;;;13.53;9.93;;;22.70;99.90;;;;;;5012687;28;20738;-77
2021/06/18 05:19:41;;;;;;;16.07;9.87;;;22.80;99.90;;;;;;5012708;28;20786;-76
2021/06/18 05:22:07;;;;;;;15.53;10.10;;;22.90;99.90;;;;;;5013781;28;20418;-78
2021/06/18 05:24:32;;;;;;;12.10;9.77;;;23.00;99.90;;;;;;5013273;28;20252;-80
2021/06/18 05:26:58;;;;;;;11.00;8.23;;;23.10;99.90;;;;;;5013672;28;20187;-77
2021/06/18 05:29:24;;;;;;;11.27;8.83;;;23.20;99.90;;;;;;5013503;28;20186;-77
2021/06/18 05:31:49;;;;;;;14.57;9.53;;;23.20;99.90;;;;;;5012398;28;20179;-78
2021/06/18 05:34:15;;;;;;;11.33;10.20;;;23.20;99.90;;;;;;5011913;28;20214;-81
2021/06/18 05:36:44;;;;;;;15.13;8.83;;;23.30;99.90;;;;;;5014081;28;20166;-77
2021/06/18 05:39:14;;;;;;;12.03;8.37;;;23.40;99.90;;;;;;5013797;28;20183;-80
2021/06/18 05:41:40;;;;;;;12.53;9.63;;;23.50;99.90;;;;;;5014252;28;20805;-79
2021/06/18 05:44:06;;;;;;;14.13;9.57;;;23.60;99.90;;;;;;5012083;28;20878;-80
2021/06/18 05:46:32;;;;;;;13.80;9.90;;;23.70;99.90;;;;;;5013454;28;20441;-80
2021/06/18 05:48:58;;;;;;;12.10;8.90;;;23.70;99.90;;;;;;5015154;28;20501;-78
2021/06/18 05:51:23;;;;;;;12.23;8.93;;;23.70;99.90;;;;;;5017184;28;20253;-80
2021/06/18 05:53:49;;;;;;;10.53;9.53;;;23.70;99.90;;;;;;5017130;28;20445;-78
2021/06/18 05:56:15;;;;;;;11.57;9.27;;;23.90;99.90;;;;;;5017499;28;20194;-80
2021/06/18 05:58:40;;;;;;;11.77;10.00;;;23.80;99.90;;;;;;5017437;28;20211;-76
2021/06/18 06:01:06;;;;;;;10.00;7.73;;;23.70;99.90;;;;;;5017063;28;20709;-78
2021/06/18 06:03:33;;;;;;;11.23;9.30;;;23.90;99.90;;;;;;5016822;28;20229;-78
2021/06/18 06:05:59;;;;;;;13.30;10.23;;;24.00;99.90;;;;;;5017325;28;20211;-76
2021/06/18 06:08:25;;;;;;;12.27;8.80;;;24.00;99.90;;;;;;5017216;28;20944;-77
2021/06/18 06:10:50;;;;;;;12.50;9.50;;;24.10;99.90;;;;;;5017208;28;20457;-77
2021/06/18 06:13:18;;;;;;;15.17;9.03;;;24.20;99.90;;;;;;5016746;28;20700;-76
2021/06/18 06:15:46;;;;;;;10.17;8.00;;;24.30;99.90;;;;;;5016996;28;20540;-76
2021/06/18 06:18:12;;;;;;;13.07;9.57;;;24.40;99.90;;;;;;5016998;28;20415;-76
2021/06/18 06:20:37;;;;;;;12.87;9.77;;;24.50;99.90;;;;;;5016924;28;20520;-77
2021/06/18 06:23:03;;;;;;;10.40;9.30;;;24.60;99.90;;;;;;5015450;28;20178;-77
2021/06/18 06:25:29;;;;;;;16.63;9.50;;;24.60;99.90;;;;;;5016712;28;20210;-77
2021/06/18 06:27:55;;;;;;;9.27;8.10;;;24.60;99.90;;;;;;5015728;28;20708;-76
2021/06/18 06:30:21;;;;;;;13.00;9.90;;;24.80;99.90;;;;;;5016909;28;20592;-76
2021/06/18 06:32:46;;;;;;;13.57;9.17;;;24.90;99.90;;;;;;5016517;28;20500;-77
2021/06/18 06:35:12;;;;;;;11.93;8.30;;;25.10;99.90;;;;;;5016458;28;20214;-77
2021/06/18 06:37:38;;;;;;;11.37;8.10;;;25.20;99.90;;;;;;5016610;28;20182;-77
2021/06/18 06:40:05;;;;;;;16.73;8.60;;;25.50;99.90;;;;;;5016648;28;20715;-78
2021/06/18 06:42:31;;;;;;;11.63;8.27;;;25.70;99.90;;;;;;5015440;28;20202;-76
2021/06/18 06:44:57;;;;;;;13.40;8.33;;;25.90;99.90;;;;;;5016066;28;20892;-77
2021/06/18 06:47:22;;;;;;;14.07;8.50;;;25.70;99.90;;;;;;5016432;28;20221;-76
2021/06/18 06:49:48;;;;;;;12.37;8.40;;;25.70;99.90;;;;;;5016131;28;20242;-76
2021/06/18 06:52:13;;;;;;;14.73;8.90;;;25.80;99.90;;;;;;5016258;28;20265;-76
2021/06/18 06:54:39;;;;;;;11.37;8.43;;;26.00;99.90;;;;;;5014658;28;20210;-76
2021/06/18 06:57:05;;;;;;;13.80;8.70;;;26.00;99.90;;;;;;5015077;28;20175;-76
2021/06/18 06:59:31;;;;;;;13.03;7.67;;;26.10;99.90;;;;;;5016064;28;20505;-76
2021/06/18 07:01:57;;;;;;;12.43;8.93;;;26.30;99.90;;;;;;5015268;28;20179;-75
2021/06/18 07:04:23;;;;;;;12.57;8.10;;;26.30;99.90;;;;;;5015845;28;20199;-76
2021/06/18 07:06:48;;;;;;;12.10;8.23;;;26.50;99.90;;;;;;5016176;28;20202;-76
2021/06/18 07:09:15;;;;;;;13.80;7.70;;;26.50;99.90;;;;;;5015905;28;20440;-76
2021/06/18 07:11:41;;;;;;;9.40;8.40;;;26.70;99.90;;;;;;5015958;28;20258;-76
2021/06/18 07:14:06;;;;;;;12.10;8.40;;;26.80;99.90;;;;;;5015401;28;20984;-77
2021/06/18 07:16:32;;;;;;;17.07;8.83;;;26.90;99.90;;;;;;5015998;28;20418;-77
2021/06/18 07:18:57;;;;;;;12.40;9.10;;;26.90;99.90;;;;;;5015953;28;20175;-78
2021/06/18 07:21:23;;;;;;;15.90;9.20;;;27.00;99.90;;;;;;5015771;28;20647;-78
2021/06/18 07:23:49;;;;;;;22.30;8.87;;;26.90;99.90;;;;;;5015478;28;20237;-78
2021/06/18 07:26:14;;;;;;;13.30;11.53;;;27.00;99.90;;;;;;5015567;28;20210;-77
2021/06/18 07:28:40;;;;;;;12.20;11.00;;;26.60;99.90;;;;;;5015780;28;20183;-77
2021/06/18 07:31:05;;;;;;;12.53;11.27;;;26.60;99.90;;;;;;5015741;28;20583;-75
2021/06/18 07:33:33;;;;;;;17.70;12.60;;;26.50;99.90;;;;;;5013865;28;20178;-76
2021/06/18 07:35:59;;;;;;;16.33;11.30;;;26.50;99.90;;;;;;5015334;28;20202;-76
2021/06/18 07:38:24;;;;;;;14.67;10.27;;;26.40;99.90;;;;;;5014788;28;20826;-79
2021/06/18 07:40:50;;;;;;;13.40;11.90;;;26.50;99.90;;;;;;5015073;28;20233;-78
2021/06/18 07:43:16;;;;;;;16.80;11.00;;;26.50;99.90;;;;;;5014688;28;20190;-78
2021/06/18 07:45:41;;;;;;;15.43;10.43;;;26.60;99.90;;;;;;5013453;28;20191;-78
2021/06/18 07:48:10;;;;;;;11.73;9.07;;;26.50;99.90;;;;;;5013540;28;20190;-78
2021/06/18 07:50:38;;;;;;;12.20;8.93;;;26.40;99.90;;;;;;4997732;28;20689;-78
2021/06/18 07:53:04;;;;;;;12.23;8.17;;;26.30;99.90;;;;;;5014854;28;20513;-78
2021/06/18 07:55:30;;;;;;;9.73;8.20;;;26.20;99.90;;;;;;5014350;28;20469;-78
2021/06/18 07:57:56;;;;;;;13.70;10.03;;;26.30;99.90;;;;;;5014882;28;20422;-77
2021/06/18 08:00:22;;;;;;;13.50;10.53;;;26.30;99.90;;;;;;5014008;28;20428;-76
2021/06/18 08:02:48;;;;;;;12.70;9.87;;;26.30;99.90;;;;;;5014661;28;20214;-76
2021/06/18 08:05:14;;;;;;;13.80;10.33;;;26.40;99.90;;;;;;5014568;28;20464;-76
2021/06/18 08:07:41;;;;;;;14.23;9.80;;;26.40;99.90;;;;;;5014951;28;20910;-76
2021/06/18 08:10:09;;;;;;;11.50;10.13;;;26.40;99.90;;;;;;5013472;28;20473;-77
2021/06/18 08:12:35;;;;;;;11.70;9.77;;;26.40;99.90;;;;;;5013771;28;20440;-76
2021/06/18 08:15:01;;;;;;;11.70;9.77;;;26.30;99.90;;;;;;5014710;28;20434;-77
2021/06/18 08:17:26;;;;;;;13.80;11.07;;;26.50;99.90;;;;;;5013445;28;20475;-78
2021/06/18 08:19:52;;;;;;;14.00;9.90;;;27.00;99.90;;;;;;5014857;28;20187;-77
2021/06/18 08:22:18;;;;;;;12.60;8.63;;;27.10;99.90;;;;;;5014671;28;20192;-78
2021/06/18 08:24:44;;;;;;;9.20;7.40;;;27.10;99.90;;;;;;5014196;28;20594;-77
2021/06/18 08:27:10;;;;;;;9.80;7.07;;;27.50;99.90;;;;;;5014809;28;20187;-78
2021/06/18 08:29:35;;;;;;;12.33;7.10;;;27.70;99.90;;;;;;5014710;28;20211;-77
2021/06/18 08:32:01;;;;;;;15.87;7.20;;;27.90;99.90;;;;;;5014561;28;20511;-77
2021/06/18 08:34:27;;;;;;;6.80;6.17;;;27.70;99.90;;;;;;5013932;28;20206;-78
2021/06/18 08:36:53;;;;;;;7.27;6.17;;;28.10;99.90;;;;;;5014722;28;20179;-78
2021/06/18 08:39:18;;;;;;;10.70;5.67;;;28.60;99.90;;;;;;5017314;28;20253;-77
2021/06/18 08:41:44;;;;;;;8.90;5.47;;;29.20;99.90;;;;;;5013128;28;20183;-78
2021/06/18 08:44:10;;;;;;;6.80;5.20;;;29.20;99.90;;;;;;5012718;28;20194;-77
2021/06/18 08:46:36;;;;;;;8.90;5.70;;;29.30;99.90;;;;;;5013180;28;20182;-77
2021/06/18 08:49:01;;;;;;;5.63;4.43;;;29.60;99.90;;;;;;5014141;28;20582;-77
2021/06/18 08:51:27;;;;;;;12.97;5.10;;;29.50;99.90;;;;;;5014068;28;20606;-77
2021/06/18 08:53:53;;;;;;;6.80;4.80;;;29.50;99.90;;;;;;5013887;28;20249;-77
2021/06/18 08:56:19;;;;;;;15.07;6.50;;;29.30;99.90;;;;;;5013966;28;20272;-78
2021/06/18 08:58:45;;;;;;;7.23;5.10;;;29.80;99.90;;;;;;5013875;28;20533;-78
2021/06/18 09:01:11;;;;;;;8.83;6.33;;;30.10;99.90;;;;;;5013947;28;20906;-78
2021/06/18 09:03:42;;;;;;;6.40;5.10;;;30.40;99.90;;;;;;5014012;28;20488;-78
2021/06/18 09:06:28;;;;;;;9.40;5.73;;;30.50;99.90;;;;;;5013974;28;20185;-78
2021/06/18 09:09:14;;;;;;;10.07;6.10;;;30.80;99.90;;;;;;5012513;28;20922;-79
2021/06/18 09:11:53;;;;;;;10.23;5.70;;;30.80;99.90;;;;;;5012497;28;20453;-78
2021/06/18 09:14:31;;;;;;;7.63;5.40;;;31.30;99.90;;;;;;5012248;28;20800;-79
2021/06/18 09:17:17;;;;;;;7.23;5.60;;;31.20;99.90;;;;;;5013627;28;20409;-77
2021/06/18 09:19:46;;;;;;;6.20;5.20;;;31.60;99.90;;;;;;5013712;28;20782;-78
2021/06/18 09:22:34;;;;;;;6.80;4.90;;;31.80;99.90;;;;;;5013725;28;20821;-78
2021/06/18 09:25:06;;;;;;;7.80;5.27;;;31.20;99.90;;;;;;5013150;28;20791;-79
2021/06/18 09:27:37;;;;;;;7.40;5.10;;;31.30;99.90;;;;;;5013854;28;20918;-75
2021/06/18 09:30:22;;;;;;;7.10;4.53;;;31.20;99.90;;;;;;5013762;28;20854;-78
2021/06/18 09:33:02;;;;;;;9.17;5.00;;;30.60;99.90;;;;;;5013524;28;20413;-78
2021/06/18 09:35:31;;;;;;;9.63;5.23;;;31.00;99.90;;;;;;5012147;28;20457;-78
2021/06/18 09:38:00;;;;;;;7.77;5.33;;;30.80;99.90;;;;;;5013724;28;20811;-79
2021/06/18 09:40:27;;;;;;;11.50;5.33;;;30.80;99.90;;;;;;5012211;28;20937;-78
2021/06/18 09:42:56;;;;;;;6.90;4.87;;;31.20;99.90;;;;;;5013213;28;20484;-79
2021/06/18 09:45:25;;;;;;;10.07;5.80;;;31.90;99.90;;;;;;5013462;28;20434;-79
2021/06/18 09:47:51;;;;;;;6.00;4.30;;;31.70;99.90;;;;;;5013283;28;20415;-78
2021/06/18 09:50:26;;;;;;;7.53;4.90;;;32.00;99.90;;;;;;5013442;28;20544;-79
2021/06/18 09:53:11;;;;;;;7.87;4.20;;;31.90;99.90;;;;;;5013188;28;20414;-78
2021/06/18 09:55:38;;;;;;;7.67;5.50;;;31.70;99.90;;;;;;5013260;28;20428;-78
2021/06/18 09:58:03;;;;;;;9.67;4.50;;;32.00;99.90;;;;;;5011578;28;20858;-77
2021/06/18 10:00:29;;;;;;;6.70;4.30;;;32.20;99.90;;;;;;5013346;28;20500;-79
2021/06/18 10:02:56;;;;;;;6.70;4.47;;;32.40;99.90;;;;;;5011661;28;20706;-78
2021/06/18 10:05:24;;;;;;;5.83;4.30;;;32.70;99.90;;;;;;5012672;28;20261;-79
2021/06/18 10:07:52;;;;;;;6.47;4.57;;;32.90;99.90;;;;;;5012920;28;20421;-77
2021/06/18 10:10:23;;;;;;;6.63;4.67;;;33.20;99.90;;;;;;5013196;28;20460;-75
2021/06/18 10:12:49;;;;;;;12.43;4.60;;;33.30;99.90;;;;;;5012882;28;20421;-77
2021/06/18 10:15:18;;;;;;;8.90;4.60;;;32.60;99.90;;;;;;5012970;28;20848;-78
2021/06/18 10:17:45;;;;;;;9.03;4.77;;;32.80;99.90;;;;;;5012980;28;20412;-79
2021/06/18 10:20:17;;;;;;;12.37;4.50;;;32.70;99.90;;;;;;5012632;28;20953;-75
2021/06/18 10:22:57;;;;;;;7.23;4.50;;;33.40;99.90;;;;;;5013114;28;20891;-79
2021/06/18 10:25:38;;;;;;;6.57;4.60;;;33.50;99.90;;;;;;5012795;28;20482;-77
2021/06/18 10:28:09;;;;;;;11.33;4.77;;;33.70;99.90;;;;;;5013161;28;20436;-76
2021/06/18 10:30:44;;;;;;;7.20;4.30;;;34.50;99.90;;;;;;5012802;28;20508;-76
2021/06/18 10:33:28;;;;;;;7.33;3.63;;;34.60;99.90;;;;;;5012684;28;20414;-74
2021/06/18 10:35:58;;;;;;;14.00;4.87;;;34.10;99.90;;;;;;5013503;28;20430;-75
2021/06/18 10:38:26;;;;;;;7.83;4.37;;;34.60;99.90;;;;;;5014912;28;20831;-74
2021/06/18 10:40:54;;;;;;;10.30;4.70;;;34.30;99.90;;;;;;5016086;28;20421;-74
2021/06/18 10:43:20;;;;;;;10.17;4.63;;;34.50;99.90;;;;;;5016200;28;20497;-74
2021/06/18 10:46:01;;;;;;;11.57;4.30;;;34.60;99.90;;;;;;5016451;28;20505;-74
2021/06/18 10:48:51;;;;;;;8.30;4.90;;;34.90;99.90;;;;;;5016321;28;20167;-74
2021/06/18 10:51:25;;;;;;;9.60;4.50;;;35.20;99.90;;;;;;5015106;28;20492;-73
2021/06/18 10:54:13;;;;;;;12.30;5.53;;;35.50;99.90;;;;;;5015806;28;20437;-74
2021/06/18 10:56:45;;;;;;;8.47;4.37;;;35.60;99.90;;;;;;5012312;28;20926;-74
2021/06/18 10:59:38;;;;;;;8.90;4.13;;;35.50;99.90;;;;;;5016142;28;20417;-74
2021/06/18 11:02:25;;;;;;;10.63;4.60;;;35.80;99.90;;;;;;5015916;28;20497;-73
2021/06/18 11:04:59;;;;;;;5.77;4.40;;;35.90;99.90;;;;;;5015815;28;20519;-74
2021/06/18 11:07:25;;;;;;;10.47;4.57;;;36.20;99.90;;;;;;5016173;28;20445;-74
2021/06/18 11:09:55;;;;;;;10.17;5.30;;;36.10;99.90;;;;;;5015831;28;21172;-74
2021/06/18 11:12:24;;;;;;;9.87;4.80;;;36.50;99.90;;;;;;5015868;28;20422;-74
2021/06/18 11:14:54;;;;;;;8.73;4.83;;;35.90;99.90;;;;;;5014992;28;20465;-73
2021/06/18 11:17:43;;;;;;;15.50;5.30;;;35.70;99.90;;;;;;5015596;28;20429;-73
2021/06/18 11:20:23;;;;;;;10.20;5.90;;;36.10;99.90;;;;;;5015502;28;20429;-74
2021/06/18 11:22:54;;;;;;;7.33;5.77;;;35.80;99.90;;;;;;5015646;28;20420;-73
2021/06/18 11:25:39;;;;;;;8.50;6.10;;;35.80;99.90;;;;;;5015501;28;20441;-74
2021/06/18 11:28:31;;;;;;;6.80;4.70;;;36.60;99.90;;;;;;5015862;28;20406;-76
2021/06/18 11:30:59;;;;;;;8.20;4.93;;;37.20;99.90;;;;;;5012995;28;20504;-73
2021/06/18 11:33:39;;;;;;;7.17;4.47;;;37.40;99.90;;;;;;5014976;28;20448;-74
2021/06/18 11:36:17;;;;;;;7.80;4.40;;;37.40;99.90;;;;;;5016133;28;20425;-74
2021/06/18 11:38:51;;;;;;;6.60;4.30;;;37.50;99.90;;;;;;5015426;28;20460;-75
2021/06/18 11:41:37;;;;;;;9.63;5.17;;;37.50;99.90;;;;;;5015451;28;20402;-74
2021/06/18 11:44:04;;;;;;;7.23;4.67;;;38.40;99.90;;;;;;5014899;28;20835;-74
2021/06/18 11:46:32;;;;;;;9.80;4.63;;;38.20;99.90;;;;;;5014932;28;20414;-74
2021/06/18 11:49:08;;;;;;;11.63;4.83;;;38.50;99.90;;;;;;5015161;28;20402;-74
2021/06/18 11:51:33;;;;;;;9.73;4.70;;;38.60;99.90;;;;;;5014986;28;20540;-74
2021/06/18 11:53:59;;;;;;;9.40;4.90;;;38.50;99.40;;;;;;5014467;28;20508;-74
2021/06/18 11:56:29;;;;;;;10.57;4.17;;;38.50;96.90;;;;;;5013771;28;20318;-74
2021/06/18 11:58:55;;;;;;;5.43;4.47;;;38.90;95.80;;;;;;5015329;28;20662;-74
2021/06/18 12:01:29;;;;;;;6.50;3.70;;;39.40;93.60;;;;;;5014226;28;20418;-75
2021/06/18 12:04:00;;;;;;;10.87;4.10;;;38.90;91.20;;;;;;5014603;28;20206;-75
2021/06/18 12:06:28;;;;;;;7.50;4.03;;;39.10;86.80;;;;;;5014729;28;20517;-75
2021/06/18 12:09:00;;;;;;;7.90;3.30;;;38.40;83.10;;;;;;5013485;28;20426;-75
2021/06/18 12:11:31;;;;;;;7.83;2.97;;;39.10;84.10;;;;;;5014819;28;20454;-75
2021/06/18 12:13:57;;;;;;;10.97;3.43;;;39.60;77.60;;;;;;5012986;28;20802;-75
2021/06/18 12:16:34;;;;;;;7.80;4.07;;;39.80;78.50;;;;;;5014576;28;20421;-75
2021/06/18 12:19:16;;;;;;;8.20;3.47;;;39.80;73.80;;;;;;5014821;28;20441;-75
2021/06/18 12:21:43;;;;;;;7.63;3.30;;;39.10;73.20;;;;;;5014682;28;20501;-75
2021/06/18 12:24:09;;;;;;;5.93;2.77;;;38.80;74.40;;;;;;5014328;28;20779;-75
2021/06/18 12:26:36;;;;;;;7.30;3.20;;;38.70;74.10;;;;;;5014579;28;20457;-75
2021/06/18 12:29:03;;;;;;;9.10;3.23;;;39.40;76.40;;;;;;5013346;28;20440;-75
2021/06/18 12:31:32;;;;;;;7.73;3.00;;;39.80;69.60;;;;;;5014331;28;20469;-75
2021/06/18 12:33:58;;;;;;;12.57;3.57;;;39.70;73.50;;;;;;5013823;28;20445;-75
2021/06/18 12:36:24;;;;;;;5.87;3.53;;;40.40;69.80;;;;;;5012943;28;20426;-76
2021/06/18 12:38:50;;;;;;;6.90;3.07;;;40.80;68.30;;;;;;5014147;28;20918;-75
2021/06/18 12:41:48;;;;;;;8.97;3.13;;;41.00;65.90;;;;;;5014330;28;20186;-76
2021/06/18 12:44:14;;;;;;;9.40;3.30;;;40.00;65.80;;;;;;5013656;28;20599;-75
2021/06/18 12:46:39;;;;;;;6.47;3.50;;;40.30;65.60;;;;;;5014124;28;20420;-75
2021/06/18 12:49:10;;;;;;;4.30;3.20;;;39.50;64.40;;;;;;5014029;28;20233;-75